createdAt,value
2018-11-10T00:00:40.441Z,96.10
2018-11-10T00:05:43.949Z,95.70
2018-11-10T00:10:47.583Z,95.20
2018-11-10T00:15:53.166Z,95.10
2018-11-10T00:20:56.755Z,94.80
2018-11-10T00:26:00.299Z,94.90
2018-11-10T00:31:03.874Z,94.50
2018-11-10T00:36:07.757Z,94.60
2018-11-10T00:41:11.335Z,95.50
2018-11-10T00:46:14.885Z,95.00
2018-11-10T00:51:18.417Z,95.00
2018-11-10T00:56:22.120Z,94.90
2018-11-10T01:01:25.715Z,95.00
2018-11-10T01:06:29.145Z,95.00
2018-11-10T01:11:32.597Z,95.80
2018-11-10T01:16:36.154Z,96.20
2018-11-10T01:21:39.810Z,96.30
2018-11-10T01:26:43.466Z,96.20
2018-11-10T01:31:46.950Z,96.50
2018-11-10T01:36:50.959Z,96.20
2018-11-10T01:41:55.590Z,96.70
2018-11-10T01:46:59.200Z,97.30
2018-11-10T01:52:02.835Z,97.00
2018-11-10T01:57:06.403Z,96.70
2018-11-10T02:02:09.949Z,96.70
2018-11-10T02:07:13.617Z,97.10
2018-11-10T02:12:17.371Z,97.20
2018-11-10T02:17:20.910Z,97.20
2018-11-10T02:22:24.572Z,97.00
2018-11-10T02:27:28.635Z,96.90
2018-11-10T02:32:32.257Z,96.70
2018-11-10T02:37:36.274Z,97.10
2018-11-10T02:42:39.738Z,96.60
2018-11-10T02:47:44.134Z,96.50
2018-11-10T02:52:56.144Z,96.60
2018-11-10T02:57:59.601Z,96.90
2018-11-10T03:03:03.213Z,96.70
2018-11-10T03:08:06.701Z,96.70
2018-11-10T03:13:10.250Z,96.20
2018-11-10T03:18:13.854Z,95.90
2018-11-10T03:23:17.460Z,96.10
2018-11-10T03:28:21.246Z,96.00
2018-11-10T03:33:24.812Z,95.70
2018-11-10T03:38:28.343Z,95.90
2018-11-10T03:43:33.978Z,95.80
2018-11-10T03:48:37.797Z,95.90
2018-11-10T03:53:41.545Z,95.80
2018-11-10T03:58:44.989Z,95.60
2018-11-10T04:03:48.515Z,95.50
2018-11-10T04:08:52.346Z,95.60
2018-11-10T04:13:55.744Z,95.20
2018-11-10T04:18:59.201Z,95.30
2018-11-10T04:24:02.699Z,95.00
2018-11-10T04:29:06.347Z,95.20
2018-11-10T04:34:09.945Z,95.10
2018-11-10T04:39:13.453Z,95.20
2018-11-10T04:44:16.886Z,94.80
2018-11-10T04:49:20.304Z,95.00
2018-11-10T04:54:23.802Z,95.10
2018-11-10T04:59:27.281Z,95.10
2018-11-10T05:04:31.151Z,95.20
2018-11-10T05:09:34.845Z,95.20
2018-11-10T05:14:38.339Z,95.30
2018-11-10T05:19:41.830Z,95.10
2018-11-10T05:24:45.310Z,95.50
2018-11-10T05:29:48.730Z,94.80
2018-11-10T05:34:52.331Z,95.00
2018-11-10T05:39:55.868Z,94.80
2018-11-10T05:44:59.444Z,94.80
2018-11-10T05:50:03.325Z,94.80
2018-11-10T05:55:07.597Z,94.70
2018-11-10T06:00:13.207Z,94.80
2018-11-10T06:05:16.783Z,94.60
2018-11-10T06:10:20.673Z,94.60
2018-11-10T06:15:24.128Z,94.70
2018-11-10T06:20:27.641Z,94.50
2018-11-10T06:25:31.095Z,94.70
2018-11-10T06:30:34.650Z,95.00
2018-11-10T06:35:38.141Z,95.30
2018-11-10T06:40:41.651Z,95.60
2018-11-10T06:45:45.512Z,95.80
2018-11-10T06:50:48.990Z,95.80
2018-11-10T06:55:52.413Z,95.90
2018-11-10T07:00:55.909Z,96.00
2018-11-10T07:05:59.428Z,95.90
2018-11-10T07:11:02.964Z,96.00
2018-11-10T07:16:06.463Z,96.00
2018-11-10T07:21:09.900Z,96.20
2018-11-10T07:26:13.468Z,96.10
2018-11-10T07:31:17.068Z,96.20
2018-11-10T07:36:20.753Z,96.10
2018-11-10T07:41:24.238Z,95.30
2018-11-10T07:46:27.842Z,95.00
2018-11-10T07:51:32.086Z,94.90
2018-11-10T07:56:35.915Z,95.20
2018-11-10T08:01:39.600Z,94.70
2018-11-10T08:06:43.121Z,94.60
2018-11-10T08:11:47.715Z,94.60
2018-11-10T08:16:51.400Z,94.30
2018-11-10T08:21:54.969Z,94.10
2018-11-10T08:26:58.549Z,94.50
2018-11-10T08:32:02.109Z,93.80
2018-11-10T08:37:06.086Z,93.80
2018-11-10T08:42:10.645Z,93.70
2018-11-10T08:47:14.133Z,94.10
2018-11-10T08:52:17.685Z,93.10
2018-11-10T08:57:21.210Z,92.70
2018-11-10T09:02:24.676Z,92.50
2018-11-10T09:07:28.234Z,92.40
2018-11-10T09:12:31.727Z,92.30
2018-11-10T09:17:35.267Z,92.30
2018-11-10T09:22:38.979Z,92.50
2018-11-10T09:27:42.725Z,92.70
2018-11-10T09:32:46.237Z,92.90
2018-11-10T09:37:50.005Z,92.70
2018-11-10T09:42:53.615Z,91.70
2018-11-10T09:47:57.110Z,91.50
2018-11-10T09:53:00.595Z,91.40
2018-11-10T09:58:04.081Z,91.50
2018-11-10T10:03:07.684Z,91.60
2018-11-10T10:08:11.206Z,91.30
2018-11-10T10:13:14.876Z,91.00
2018-11-10T10:18:18.403Z,91.40
2018-11-10T10:23:22.260Z,91.70
2018-11-10T10:28:25.810Z,92.00
2018-11-10T10:33:29.347Z,92.00
2018-11-10T10:38:33.115Z,91.80
2018-11-10T10:43:36.980Z,91.50
2018-11-10T10:48:41.236Z,91.40
2018-11-10T10:53:44.755Z,91.30
2018-11-10T10:58:48.213Z,90.80
2018-11-10T11:03:57.395Z,90.70
2018-11-10T11:09:00.985Z,90.70
2018-11-10T11:14:04.595Z,90.50
2018-11-10T11:19:08.105Z,90.40
2018-11-10T11:24:11.568Z,90.20
2018-11-10T11:29:15.084Z,90.40
2018-11-10T11:34:18.568Z,89.80
2018-11-10T11:39:22.382Z,88.30
2018-11-10T11:44:25.869Z,88.80
2018-11-10T11:49:29.463Z,88.40
2018-11-10T11:54:33.007Z,87.70
2018-11-10T11:59:37.020Z,88.40
2018-11-10T12:04:40.908Z,86.20
2018-11-10T12:09:48.293Z,86.60
2018-11-10T12:14:52.298Z,87.40
2018-11-10T12:19:55.815Z,88.20
2018-11-10T12:24:59.324Z,89.50
2018-11-10T12:30:02.946Z,89.00
2018-11-10T12:35:07.885Z,89.50
2018-11-10T12:40:12.531Z,89.50
2018-11-10T12:45:16.288Z,89.30
2018-11-10T12:50:19.998Z,90.30
2018-11-10T12:55:23.468Z,90.60
2018-11-10T13:00:27.005Z,90.70
2018-11-10T13:05:30.516Z,91.00
2018-11-10T13:10:34.145Z,91.40
2018-11-10T13:15:38.157Z,91.50
2018-11-10T13:20:41.597Z,91.70
2018-11-10T13:25:45.117Z,92.20
2018-11-10T13:30:48.592Z,91.30
2018-11-10T13:35:52.403Z,91.50
2018-11-10T13:40:56.132Z,91.70
2018-11-10T13:45:59.601Z,92.10
2018-11-10T13:51:03.423Z,92.80
2018-11-10T13:56:06.731Z,92.80
2018-11-10T14:01:10.289Z,93.10
2018-11-10T14:06:13.856Z,93.60
2018-11-10T14:11:17.386Z,93.80
2018-11-10T14:16:20.808Z,93.60
2018-11-10T14:21:24.730Z,93.40
2018-11-10T14:26:28.424Z,93.50
2018-11-10T14:31:31.935Z,93.70
2018-11-10T14:36:35.461Z,93.60
2018-11-10T14:41:39.073Z,93.60
2018-11-10T14:46:42.507Z,93.40
2018-11-10T14:51:46.288Z,93.60
2018-11-10T14:56:50.005Z,93.50
2018-11-10T15:01:53.477Z,93.60
2018-11-10T15:06:56.939Z,93.70
2018-11-10T15:12:00.626Z,94.00
2018-11-10T15:17:04.450Z,94.00
2018-11-10T15:22:07.979Z,94.00
2018-11-10T15:27:11.612Z,94.10
2018-11-10T15:32:15.304Z,94.00
2018-11-10T15:37:18.824Z,94.30
2018-11-10T15:42:22.309Z,94.20
2018-11-10T15:47:25.920Z,94.20
2018-11-10T15:52:29.377Z,94.60
2018-11-10T15:57:33.069Z,94.30
2018-11-10T16:02:36.633Z,94.30
2018-11-10T16:07:40.130Z,94.50
2018-11-10T16:12:43.668Z,94.40
2018-11-10T16:17:47.150Z,94.30
2018-11-10T16:22:51.389Z,94.10
2018-11-10T16:27:54.913Z,94.60
2018-11-10T16:32:58.446Z,94.30
2018-11-10T16:38:01.961Z,93.80
2018-11-10T16:43:06.121Z,94.00
2018-11-10T16:48:09.670Z,93.90
2018-11-10T16:53:13.302Z,94.00
2018-11-10T16:58:18.095Z,93.80
2018-11-10T17:03:21.875Z,93.40
2018-11-10T17:08:25.467Z,93.90
2018-11-10T17:13:29.296Z,93.80
2018-11-10T17:18:32.744Z,93.40
2018-11-10T17:23:36.332Z,93.70
2018-11-10T17:28:39.969Z,92.80
2018-11-10T17:33:43.450Z,92.40
2018-11-10T17:38:47.042Z,92.90
2018-11-10T17:43:50.600Z,93.30
2018-11-10T17:48:54.025Z,92.90
2018-11-10T17:53:57.870Z,93.10
2018-11-10T17:59:01.644Z,93.00
2018-11-10T18:04:05.553Z,92.90
2018-11-10T18:09:10.360Z,93.00
2018-11-10T18:14:13.876Z,93.60
2018-11-10T18:19:17.652Z,93.20
2018-11-10T18:24:21.337Z,93.70
2018-11-10T18:29:25.052Z,93.20
2018-11-10T18:34:28.641Z,93.50
2018-11-10T18:39:32.222Z,93.20
2018-11-10T18:44:35.680Z,93.70
2018-11-10T18:49:39.275Z,93.40
2018-11-10T18:54:42.812Z,93.70
2018-11-10T18:59:46.300Z,93.50
2018-11-10T19:04:50.060Z,93.40
2018-11-10T19:09:53.685Z,93.30
2018-11-10T19:14:57.133Z,92.90
2018-11-10T19:20:00.687Z,93.10
2018-11-10T19:25:05.363Z,93.70
2018-11-10T19:30:15.693Z,93.50
2018-11-10T19:35:19.652Z,93.70
2018-11-10T19:40:23.224Z,93.30
2018-11-10T19:45:26.889Z,93.50
2018-11-10T19:50:30.479Z,93.40
2018-11-10T19:55:33.953Z,93.50
2018-11-10T20:00:37.534Z,93.20
2018-11-10T20:05:41.005Z,93.60
2018-11-10T20:10:44.575Z,93.70
2018-11-10T20:15:48.135Z,93.60
2018-11-10T20:20:51.752Z,93.70
2018-11-10T20:25:55.437Z,93.80
2018-11-10T20:30:58.993Z,93.30
2018-11-10T20:36:02.440Z,93.50
2018-11-10T20:41:06.964Z,93.40
2018-11-10T20:46:10.548Z,93.50
2018-11-10T20:51:14.475Z,93.10
2018-11-10T20:56:17.945Z,92.90
2018-11-10T21:01:21.417Z,93.30
2018-11-10T21:06:24.943Z,92.80
2018-11-10T21:11:28.585Z,92.50
2018-11-10T21:16:32.037Z,93.10
2018-11-10T21:21:35.806Z,92.60
2018-11-10T21:26:39.477Z,92.60
2018-11-10T21:31:43.031Z,92.40
2018-11-10T21:36:46.737Z,92.70
2018-11-10T21:41:50.259Z,92.20
2018-11-10T21:46:54.268Z,92.10
2018-11-10T21:51:57.795Z,92.10
2018-11-10T21:57:02.244Z,92.10
2018-11-10T22:02:06.103Z,91.50
2018-11-10T22:07:09.745Z,90.80
2018-11-10T22:12:13.360Z,91.40
2018-11-10T22:17:16.877Z,91.10
2018-11-10T22:22:20.478Z,91.30
2018-11-10T22:27:23.957Z,91.40
2018-11-10T22:32:27.655Z,91.00
2018-11-10T22:37:31.256Z,91.40
2018-11-10T22:42:35.695Z,91.00
2018-11-10T22:47:40.376Z,91.40
2018-11-10T22:52:44.117Z,91.00
2018-11-10T22:57:47.600Z,90.70
2018-11-10T23:02:52.746Z,90.70
2018-11-10T23:07:56.252Z,90.70
2018-11-10T23:12:59.794Z,90.70
2018-11-10T23:18:03.597Z,90.30
2018-11-10T23:23:07.142Z,90.90
2018-11-10T23:28:10.542Z,90.50
2018-11-10T23:33:14.077Z,90.10
2018-11-10T23:38:17.553Z,90.50
2018-11-10T23:43:21.088Z,90.40
2018-11-10T23:48:24.596Z,90.40
2018-11-10T23:53:28.144Z,90.10
2018-11-10T23:58:31.635Z,89.90
